sensor_id;sensor_type;location;lat;lon;timestamp;temperature;humidity
15103;DHT22;7652;53.584;9.998;2023-02-11T00:00:11;6.90;99.90
15103;DHT22;7652;53.584;9.998;2023-02-11T00:03:14;7.00;99.90
15103;DHT22;7652;53.584;9.998;2023-02-11T00:06:17;6.90;99.90
15103;DHT22;7652;53.584;9.998;2023-02-11T00:09:20;7.00;99.90
15103;DHT22;7652;53.584;9.998;2023-02-11T00:12:25;7.00;99.90
15103;DHT22;7652;53.584;9.998;2023-02-11T00:15:28;6.90;99.90
15103;DHT22;7652;53.584;9.998;2023-02-11T00:18:31;6.90;99.90
15103;DHT22;7652;53.584;9.998;2023-02-11T00:21:34;7.00;99.90
15103;DHT22;7652;53.584;9.998;2023-02-11T00:24:37;7.00;99.90
15103;DHT22;7652;53.584;9.998;2023-02-11T00:27:41;7.00;99.90
15103;DHT22;7652;53.584;9.998;2023-02-11T00:30:44;7.00;99.90
15103;DHT22;7652;53.584;9.998;2023-02-11T00:33:48;6.90;99.90
15103;DHT22;7652;53.584;9.998;2023-02-11T00:36:51;6.90;99.90
15103;DHT22;7652;53.584;9.998;2023-02-11T00:39:55;6.90;99.90
15103;DHT22;7652;53.584;9.998;2023-02-11T00:43:00;6.90;99.90
15103;DHT22;7652;53.584;9.998;2023-02-11T00:46:03;7.00;99.90
15103;DHT22;7652;53.584;9.998;2023-02-11T00:49:06;6.90;99.90
15103;DHT22;7652;53.584;9.998;2023-02-11T00:52:09;6.90;99.90
15103;DHT22;7652;53.584;9.998;2023-02-11T00:55:12;6.90;99.90
15103;DHT22;7652;53.584;9.998;2023-02-11T00:58:16;6.80;99.90
15103;DHT22;7652;53.584;9.998;2023-02-11T01:01:19;6.80;99.90
15103;DHT22;7652;53.584;9.998;2023-02-11T01:04:22;6.80;99.90
15103;DHT22;7652;53.584;9.998;2023-02-11T01:07:26;6.70;99.90
15103;DHT22;7652;53.584;9.998;2023-02-11T01:10:29;6.70;99.90
15103;DHT22;7652;53.584;9.998;2023-02-11T01:13:34;6.70;99.90
15103;DHT22;7652;53.584;9.998;2023-02-11T01:16:38;6.70;99.90
15103;DHT22;7652;53.584;9.998;2023-02-11T01:19:42;6.70;99.90
15103;DHT22;7652;53.584;9.998;2023-02-11T01:22:45;6.80;99.90
15103;DHT22;7652;53.584;9.998;2023-02-11T01:25:48;6.70;99.90
15103;DHT22;7652;53.584;9.998;2023-02-11T01:28:53;6.70;99.90
15103;DHT22;7652;53.584;9.998;2023-02-11T01:31:56;6.80;99.90
15103;DHT22;7652;53.584;9.998;2023-02-11T01:34:59;6.80;99.90
15103;DHT22;7652;53.584;9.998;2023-02-11T01:38:02;6.80;99.90
15103;DHT22;7652;53.584;9.998;2023-02-11T01:41:07;6.80;99.90
15103;DHT22;7652;53.584;9.998;2023-02-11T01:44:35;6.80;99.90
15103;DHT22;7652;53.584;9.998;2023-02-11T01:47:38;6.80;99.90
15103;DHT22;7652;53.584;9.998;2023-02-11T01:50:42;6.90;99.90
15103;DHT22;7652;53.584;9.998;2023-02-11T01:53:47;6.90;99.90
15103;DHT22;7652;53.584;9.998;2023-02-11T01:57:10;6.90;99.90
15103;DHT22;7652;53.584;9.998;2023-02-11T02:00:28;6.90;99.90
15103;DHT22;7652;53.584;9.998;2023-02-11T02:03:32;6.90;99.90
15103;DHT22;7652;53.584;9.998;2023-02-11T02:06:43;6.90;99.90
15103;DHT22;7652;53.584;9.998;2023-02-11T02:09:51;6.90;99.90
15103;DHT22;7652;53.584;9.998;2023-02-11T02:12:56;6.80;99.90
15103;DHT22;7652;53.584;9.998;2023-02-11T02:16:02;6.80;99.90
15103;DHT22;7652;53.584;9.998;2023-02-11T02:19:30;6.80;99.90
15103;DHT22;7652;53.584;9.998;2023-02-11T02:22:57;6.90;99.90
15103;DHT22;7652;53.584;9.998;2023-02-11T02:26:25;6.80;99.90
15103;DHT22;7652;53.584;9.998;2023-02-11T02:29:54;6.90;99.90
15103;DHT22;7652;53.584;9.998;2023-02-11T02:36:50;6.90;99.90
15103;DHT22;7652;53.584;9.998;2023-02-11T02:39:58;6.90;99.90
15103;DHT22;7652;53.584;9.998;2023-02-11T02:43:06;7.00;99.90
15103;DHT22;7652;53.584;9.998;2023-02-11T02:46:12;7.00;99.90
15103;DHT22;7652;53.584;9.998;2023-02-11T02:49:17;7.00;99.90
15103;DHT22;7652;53.584;9.998;2023-02-11T02:52:29;7.10;99.90
15103;DHT22;7652;53.584;9.998;2023-02-11T02:55:48;7.10;99.90
15103;DHT22;7652;53.584;9.998;2023-02-11T02:59:07;7.10;99.90
15103;DHT22;7652;53.584;9.998;2023-02-11T03:02:19;7.20;99.90
15103;DHT22;7652;53.584;9.998;2023-02-11T03:05:31;7.20;99.90
15103;DHT22;7652;53.584;9.998;2023-02-11T03:08:41;7.20;99.90
15103;DHT22;7652;53.584;9.998;2023-02-11T03:11:45;7.20;99.90
15103;DHT22;7652;53.584;9.998;2023-02-11T03:14:50;7.10;99.90
15103;DHT22;7652;53.584;9.998;2023-02-11T03:17:55;7.10;99.90
15103;DHT22;7652;53.584;9.998;2023-02-11T03:21:02;7.10;99.90
15103;DHT22;7652;53.584;9.998;2023-02-11T03:24:11;7.10;99.90
15103;DHT22;7652;53.584;9.998;2023-02-11T03:27:20;7.10;99.90
15103;DHT22;7652;53.584;9.998;2023-02-11T03:30:27;7.10;99.90
15103;DHT22;7652;53.584;9.998;2023-02-11T03:33:36;7.10;99.90
15103;DHT22;7652;53.584;9.998;2023-02-11T03:36:45;7.10;99.90
15103;DHT22;7652;53.584;9.998;2023-02-11T03:39:53;7.10;99.90
15103;DHT22;7652;53.584;9.998;2023-02-11T03:43:00;7.20;99.90
15103;DHT22;7652;53.584;9.998;2023-02-11T03:46:05;7.20;99.90
15103;DHT22;7652;53.584;9.998;2023-02-11T03:49:11;7.20;99.90
15103;DHT22;7652;53.584;9.998;2023-02-11T03:52:17;7.30;99.90
15103;DHT22;7652;53.584;9.998;2023-02-11T03:55:22;7.30;99.90
15103;DHT22;7652;53.584;9.998;2023-02-11T03:58:26;7.30;99.90
15103;DHT22;7652;53.584;9.998;2023-02-11T04:01:29;7.30;99.90
15103;DHT22;7652;53.584;9.998;2023-02-11T04:04:33;7.40;99.90
15103;DHT22;7652;53.584;9.998;2023-02-11T04:07:37;7.40;99.90
15103;DHT22;7652;53.584;9.998;2023-02-11T04:10:40;7.40;99.90
15103;DHT22;7652;53.584;9.998;2023-02-11T04:13:43;7.40;99.90
15103;DHT22;7652;53.584;9.998;2023-02-11T04:16:48;7.50;99.90
15103;DHT22;7652;53.584;9.998;2023-02-11T04:19:51;7.60;99.90
15103;DHT22;7652;53.584;9.998;2023-02-11T04:22:56;7.60;99.90
15103;DHT22;7652;53.584;9.998;2023-02-11T04:25:59;7.70;99.90
15103;DHT22;7652;53.584;9.998;2023-02-11T04:29:02;7.70;99.90
15103;DHT22;7652;53.584;9.998;2023-02-11T04:32:04;7.70;99.90
15103;DHT22;7652;53.584;9.998;2023-02-11T04:35:07;7.80;99.90
15103;DHT22;7652;53.584;9.998;2023-02-11T04:38:12;7.80;99.90
15103;DHT22;7652;53.584;9.998;2023-02-11T04:41:15;7.80;99.90
15103;DHT22;7652;53.584;9.998;2023-02-11T04:44:18;7.80;99.90
15103;DHT22;7652;53.584;9.998;2023-02-11T04:47:21;7.90;99.90
15103;DHT22;7652;53.584;9.998;2023-02-11T04:50:24;7.80;99.90
15103;DHT22;7652;53.584;9.998;2023-02-11T04:53:29;7.80;99.90
15103;DHT22;7652;53.584;9.998;2023-02-11T04:56:32;7.90;99.90
15103;DHT22;7652;53.584;9.998;2023-02-11T04:59:35;7.90;99.90
15103;DHT22;7652;53.584;9.998;2023-02-11T05:02:38;7.90;99.90
15103;DHT22;7652;53.584;9.998;2023-02-11T05:05:41;8.00;99.90
15103;DHT22;7652;53.584;9.998;2023-02-11T05:08:45;8.00;99.90
15103;DHT22;7652;53.584;9.998;2023-02-11T05:11:49;7.90;99.90
15103;DHT22;7652;53.584;9.998;2023-02-11T05:14:52;8.00;99.90
15103;DHT22;7652;53.584;9.998;2023-02-11T05:17:55;7.90;99.90
15103;DHT22;7652;53.584;9.998;2023-02-11T05:20:58;7.80;99.90
15103;DHT22;7652;53.584;9.998;2023-02-11T05:24:02;7.80;99.90
15103;DHT22;7652;53.584;9.998;2023-02-11T05:27:06;7.80;99.90
15103;DHT22;7652;53.584;9.998;2023-02-11T05:30:10;7.90;99.90
15103;DHT22;7652;53.584;9.998;2023-02-11T05:33:13;7.80;99.90
15103;DHT22;7652;53.584;9.998;2023-02-11T05:36:16;7.80;99.90
15103;DHT22;7652;53.584;9.998;2023-02-11T05:39:20;7.80;99.90
15103;DHT22;7652;53.584;9.998;2023-02-11T05:42:23;7.80;99.90
15103;DHT22;7652;53.584;9.998;2023-02-11T05:45:26;7.80;99.90
15103;DHT22;7652;53.584;9.998;2023-02-11T05:48:30;7.80;99.90
15103;DHT22;7652;53.584;9.998;2023-02-11T05:51:33;7.80;99.90
15103;DHT22;7652;53.584;9.998;2023-02-11T05:54:37;7.80;99.90
15103;DHT22;7652;53.584;9.998;2023-02-11T05:57:40;7.90;99.90
15103;DHT22;7652;53.584;9.998;2023-02-11T06:00:43;7.90;99.90
15103;DHT22;7652;53.584;9.998;2023-02-11T06:03:46;7.90;99.90
15103;DHT22;7652;53.584;9.998;2023-02-11T06:06:50;7.90;99.90
15103;DHT22;7652;53.584;9.998;2023-02-11T06:09:55;7.90;99.90
15103;DHT22;7652;53.584;9.998;2023-02-11T06:12:58;8.00;99.90
15103;DHT22;7652;53.584;9.998;2023-02-11T06:16:01;8.00;99.90
15103;DHT22;7652;53.584;9.998;2023-02-11T06:19:04;8.00;99.90
15103;DHT22;7652;53.584;9.998;2023-02-11T06:22:07;8.00;99.90
15103;DHT22;7652;53.584;9.998;2023-02-11T06:25:12;8.00;99.90
15103;DHT22;7652;53.584;9.998;2023-02-11T06:28:16;8.00;99.90
15103;DHT22;7652;53.584;9.998;2023-02-11T06:31:20;8.00;99.90
15103;DHT22;7652;53.584;9.998;2023-02-11T06:34:23;8.00;99.90
15103;DHT22;7652;53.584;9.998;2023-02-11T06:37:26;8.00;99.90
15103;DHT22;7652;53.584;9.998;2023-02-11T06:40:30;8.10;99.90
15103;DHT22;7652;53.584;9.998;2023-02-11T06:43:33;8.10;99.90
15103;DHT22;7652;53.584;9.998;2023-02-11T06:46:36;8.10;99.90
15103;DHT22;7652;53.584;9.998;2023-02-11T06:49:39;8.20;99.90
15103;DHT22;7652;53.584;9.998;2023-02-11T06:52:42;8.20;99.90
15103;DHT22;7652;53.584;9.998;2023-02-11T06:55:46;8.20;99.90
15103;DHT22;7652;53.584;9.998;2023-02-11T06:58:51;8.20;99.90
15103;DHT22;7652;53.584;9.998;2023-02-11T07:01:55;8.10;99.90
15103;DHT22;7652;53.584;9.998;2023-02-11T07:04:58;8.10;99.90
15103;DHT22;7652;53.584;9.998;2023-02-11T07:08:01;8.10;99.90
15103;DHT22;7652;53.584;9.998;2023-02-11T07:11:10;8.10;99.90
15103;DHT22;7652;53.584;9.998;2023-02-11T07:14:13;8.10;99.90
15103;DHT22;7652;53.584;9.998;2023-02-11T07:17:16;8.10;99.90
15103;DHT22;7652;53.584;9.998;2023-02-11T07:20:19;8.10;99.90
15103;DHT22;7652;53.584;9.998;2023-02-11T07:23:22;8.10;99.90
15103;DHT22;7652;53.584;9.998;2023-02-11T07:26:26;8.10;99.90
15103;DHT22;7652;53.584;9.998;2023-02-11T07:29:29;8.10;99.90
15103;DHT22;7652;53.584;9.998;2023-02-11T07:32:32;8.10;99.90
15103;DHT22;7652;53.584;9.998;2023-02-11T07:35:35;8.10;99.90
15103;DHT22;7652;53.584;9.998;2023-02-11T07:38:39;8.10;99.90
15103;DHT22;7652;53.584;9.998;2023-02-11T07:41:43;8.10;99.90
15103;DHT22;7652;53.584;9.998;2023-02-11T07:44:48;8.10;99.90
15103;DHT22;7652;53.584;9.998;2023-02-11T07:47:51;8.10;99.90
15103;DHT22;7652;53.584;9.998;2023-02-11T07:50:54;8.10;99.90
15103;DHT22;7652;53.584;9.998;2023-02-11T07:53:58;8.10;99.90
15103;DHT22;7652;53.584;9.998;2023-02-11T07:57:03;8.10;99.90
15103;DHT22;7652;53.584;9.998;2023-02-11T08:00:06;8.10;99.90
15103;DHT22;7652;53.584;9.998;2023-02-11T08:03:09;8.10;99.90
15103;DHT22;7652;53.584;9.998;2023-02-11T08:06:14;8.20;99.90
15103;DHT22;7652;53.584;9.998;2023-02-11T08:09:17;8.20;99.90
15103;DHT22;7652;53.584;9.998;2023-02-11T08:12:21;8.20;99.90
15103;DHT22;7652;53.584;9.998;2023-02-11T08:15:24;8.20;99.90
15103;DHT22;7652;53.584;9.998;2023-02-11T08:18:27;8.30;99.90
15103;DHT22;7652;53.584;9.998;2023-02-11T08:21:31;8.30;99.90
15103;DHT22;7652;53.584;9.998;2023-02-11T08:24:34;8.30;99.90
15103;DHT22;7652;53.584;9.998;2023-02-11T08:27:38;8.30;99.90
15103;DHT22;7652;53.584;9.998;2023-02-11T08:30:41;8.30;99.90
15103;DHT22;7652;53.584;9.998;2023-02-11T08:33:44;8.30;99.90
15103;DHT22;7652;53.584;9.998;2023-02-11T08:36:47;8.30;99.90
15103;DHT22;7652;53.584;9.998;2023-02-11T08:39:50;8.30;99.90
15103;DHT22;7652;53.584;9.998;2023-02-11T08:42:55;8.40;99.90
15103;DHT22;7652;53.584;9.998;2023-02-11T08:45:58;8.40;99.90
15103;DHT22;7652;53.584;9.998;2023-02-11T08:49:03;8.40;99.90
15103;DHT22;7652;53.584;9.998;2023-02-11T08:52:06;8.40;99.90
15103;DHT22;7652;53.584;9.998;2023-02-11T08:55:09;8.40;99.90
15103;DHT22;7652;53.584;9.998;2023-02-11T08:58:13;8.40;99.90
15103;DHT22;7652;53.584;9.998;2023-02-11T09:01:23;8.40;99.90
15103;DHT22;7652;53.584;9.998;2023-02-11T09:04:26;8.30;99.90
15103;DHT22;7652;53.584;9.998;2023-02-11T09:07:29;8.40;99.90
15103;DHT22;7652;53.584;9.998;2023-02-11T09:10:32;8.40;99.90
15103;DHT22;7652;53.584;9.998;2023-02-11T09:13:37;8.50;99.90
15103;DHT22;7652;53.584;9.998;2023-02-11T09:16:42;8.50;99.90
15103;DHT22;7652;53.584;9.998;2023-02-11T09:19:45;8.50;99.90
15103;DHT22;7652;53.584;9.998;2023-02-11T09:22:48;8.50;99.90
15103;DHT22;7652;53.584;9.998;2023-02-11T09:25:51;8.50;99.90
15103;DHT22;7652;53.584;9.998;2023-02-11T09:28:55;8.60;99.90
15103;DHT22;7652;53.584;9.998;2023-02-11T09:31:58;8.60;99.90
15103;DHT22;7652;53.584;9.998;2023-02-11T09:35:01;8.60;99.90
15103;DHT22;7652;53.584;9.998;2023-02-11T09:38:05;8.60;99.90
15103;DHT22;7652;53.584;9.998;2023-02-11T09:44:48;8.70;99.90
15103;DHT22;7652;53.584;9.998;2023-02-11T09:47:54;8.80;99.90
15103;DHT22;7652;53.584;9.998;2023-02-11T09:50:59;8.70;99.90
15103;DHT22;7652;53.584;9.998;2023-02-11T09:54:06;8.80;99.90
15103;DHT22;7652;53.584;9.998;2023-02-11T09:57:13;8.80;99.90
15103;DHT22;7652;53.584;9.998;2023-02-11T10:00:36;8.90;99.90
15103;DHT22;7652;53.584;9.998;2023-02-11T10:03:51;8.90;99.90
15103;DHT22;7652;53.584;9.998;2023-02-11T10:07:05;8.90;99.90
15103;DHT22;7652;53.584;9.998;2023-02-11T10:10:16;8.90;99.90
15103;DHT22;7652;53.584;9.998;2023-02-11T10:13:38;8.90;99.90
15103;DHT22;7652;53.584;9.998;2023-02-11T10:16:57;8.90;99.90
15103;DHT22;7652;53.584;9.998;2023-02-11T10:20:13;8.90;99.90
15103;DHT22;7652;53.584;9.998;2023-02-11T10:23:22;9.00;99.90
15103;DHT22;7652;53.584;9.998;2023-02-11T10:26:28;9.00;99.90
15103;DHT22;7652;53.584;9.998;2023-02-11T10:29:39;9.00;99.90
15103;DHT22;7652;53.584;9.998;2023-02-11T10:32:47;9.00;99.90
15103;DHT22;7652;53.584;9.998;2023-02-11T10:35:51;9.00;99.90
15103;DHT22;7652;53.584;9.998;2023-02-11T10:38:54;9.00;99.90
15103;DHT22;7652;53.584;9.998;2023-02-11T10:42:00;9.00;99.90
15103;DHT22;7652;53.584;9.998;2023-02-11T10:45:05;9.00;99.90
15103;DHT22;7652;53.584;9.998;2023-02-11T10:48:38;8.90;99.90
15103;DHT22;7652;53.584;9.998;2023-02-11T10:51:41;8.90;99.90
15103;DHT22;7652;53.584;9.998;2023-02-11T10:55:00;8.90;99.90
15103;DHT22;7652;53.584;9.998;2023-02-11T10:58:03;8.90;99.90
15103;DHT22;7652;53.584;9.998;2023-02-11T11:01:07;8.90;99.90
15103;DHT22;7652;53.584;9.998;2023-02-11T11:04:39;8.90;99.90
15103;DHT22;7652;53.584;9.998;2023-02-11T11:07:51;8.90;99.90
15103;DHT22;7652;53.584;9.998;2023-02-11T11:11:04;8.90;99.90
15103;DHT22;7652;53.584;9.998;2023-02-11T11:14:17;8.90;99.90
15103;DHT22;7652;53.584;9.998;2023-02-11T11:17:21;9.00;99.90
15103;DHT22;7652;53.584;9.998;2023-02-11T11:20:27;8.90;99.90
15103;DHT22;7652;53.584;9.998;2023-02-11T11:23:34;8.90;99.90
15103;DHT22;7652;53.584;9.998;2023-02-11T11:26:40;8.90;99.90
15103;DHT22;7652;53.584;9.998;2023-02-11T11:29:45;9.00;99.90
15103;DHT22;7652;53.584;9.998;2023-02-11T11:32:49;9.00;99.90
15103;DHT22;7652;53.584;9.998;2023-02-11T11:35:58;9.00;99.90
15103;DHT22;7652;53.584;9.998;2023-02-11T11:39:14;9.00;99.90
15103;DHT22;7652;53.584;9.998;2023-02-11T11:42:25;9.00;99.90
15103;DHT22;7652;53.584;9.998;2023-02-11T11:45:28;9.00;99.90
15103;DHT22;7652;53.584;9.998;2023-02-11T11:48:34;9.00;99.90
15103;DHT22;7652;53.584;9.998;2023-02-11T11:51:42;9.00;99.90
15103;DHT22;7652;53.584;9.998;2023-02-11T11:54:54;9.00;99.90
15103;DHT22;7652;53.584;9.998;2023-02-11T11:58:00;9.00;99.90
15103;DHT22;7652;53.584;9.998;2023-02-11T12:01:18;9.10;99.90
15103;DHT22;7652;53.584;9.998;2023-02-11T12:04:37;9.10;99.90
15103;DHT22;7652;53.584;9.998;2023-02-11T12:07:55;9.10;99.90
15103;DHT22;7652;53.584;9.998;2023-02-11T12:11:08;9.20;99.90
15103;DHT22;7652;53.584;9.998;2023-02-11T12:14:20;9.20;99.90
15103;DHT22;7652;53.584;9.998;2023-02-11T12:17:40;9.20;99.90
15103;DHT22;7652;53.584;9.998;2023-02-11T12:21:01;9.30;99.90
15103;DHT22;7652;53.584;9.998;2023-02-11T12:24:30;9.20;99.90
15103;DHT22;7652;53.584;9.998;2023-02-11T12:27:45;9.20;99.90
15103;DHT22;7652;53.584;9.998;2023-02-11T12:31:01;9.20;99.90
15103;DHT22;7652;53.584;9.998;2023-02-11T12:34:27;9.20;99.90
15103;DHT22;7652;53.584;9.998;2023-02-11T12:37:50;9.20;99.90
15103;DHT22;7652;53.584;9.998;2023-02-11T12:41:04;9.30;99.90
15103;DHT22;7652;53.584;9.998;2023-02-11T12:44:20;9.30;99.90
15103;DHT22;7652;53.584;9.998;2023-02-11T12:47:29;9.30;99.90
15103;DHT22;7652;53.584;9.998;2023-02-11T12:50:41;9.30;99.90
15103;DHT22;7652;53.584;9.998;2023-02-11T12:54:02;9.30;99.90
15103;DHT22;7652;53.584;9.998;2023-02-11T12:57:16;9.30;99.90
15103;DHT22;7652;53.584;9.998;2023-02-11T13:00:22;9.30;99.90
15103;DHT22;7652;53.584;9.998;2023-02-11T13:03:30;9.20;99.90
15103;DHT22;7652;53.584;9.998;2023-02-11T13:06:40;9.30;99.90
15103;DHT22;7652;53.584;9.998;2023-02-11T13:09:48;9.30;99.90
15103;DHT22;7652;53.584;9.998;2023-02-11T13:12:56;9.30;99.90
15103;DHT22;7652;53.584;9.998;2023-02-11T13:16:34;9.30;99.90
15103;DHT22;7652;53.584;9.998;2023-02-11T13:19:43;9.40;99.90
15103;DHT22;7652;53.584;9.998;2023-02-11T13:22:51;9.30;99.90
15103;DHT22;7652;53.584;9.998;2023-02-11T13:26:01;9.30;99.90
15103;DHT22;7652;53.584;9.998;2023-02-11T13:29:17;9.30;99.90
15103;DHT22;7652;53.584;9.998;2023-02-11T13:32:22;9.30;99.90
15103;DHT22;7652;53.584;9.998;2023-02-11T13:35:27;9.40;99.90
15103;DHT22;7652;53.584;9.998;2023-02-11T13:38:31;9.30;99.90
15103;DHT22;7652;53.584;9.998;2023-02-11T13:41:37;9.30;99.90
15103;DHT22;7652;53.584;9.998;2023-02-11T13:44:42;9.40;99.90
15103;DHT22;7652;53.584;9.998;2023-02-11T13:47:45;9.30;99.90
15103;DHT22;7652;53.584;9.998;2023-02-11T13:50:55;9.40;99.90
15103;DHT22;7652;53.584;9.998;2023-02-11T13:53:59;9.50;99.90
15103;DHT22;7652;53.584;9.998;2023-02-11T13:57:30;9.50;99.90
15103;DHT22;7652;53.584;9.998;2023-02-11T14:00:46;9.50;99.90
15103;DHT22;7652;53.584;9.998;2023-02-11T14:04:12;9.50;99.90
15103;DHT22;7652;53.584;9.998;2023-02-11T14:07:37;9.50;99.90
15103;DHT22;7652;53.584;9.998;2023-02-11T14:10:59;9.50;99.90
15103;DHT22;7652;53.584;9.998;2023-02-11T14:14:14;9.40;99.90
15103;DHT22;7652;53.584;9.998;2023-02-11T14:17:26;9.50;99.90
15103;DHT22;7652;53.584;9.998;2023-02-11T14:20:34;9.40;99.90
15103;DHT22;7652;53.584;9.998;2023-02-11T14:23:39;9.40;99.90
15103;DHT22;7652;53.584;9.998;2023-02-11T14:26:46;9.40;99.90
15103;DHT22;7652;53.584;9.998;2023-02-11T14:30:07;9.40;99.90
15103;DHT22;7652;53.584;9.998;2023-02-11T14:33:38;9.30;99.90
15103;DHT22;7652;53.584;9.998;2023-02-11T14:37:02;9.30;99.90
15103;DHT22;7652;53.584;9.998;2023-02-11T14:40:16;9.30;99.90
15103;DHT22;7652;53.584;9.998;2023-02-11T14:43:24;9.30;99.90
15103;DHT22;7652;53.584;9.998;2023-02-11T14:46:31;9.30;99.90
15103;DHT22;7652;53.584;9.998;2023-02-11T14:49:38;9.30;99.90
15103;DHT22;7652;53.584;9.998;2023-02-11T14:52:42;9.20;99.90
15103;DHT22;7652;53.584;9.998;2023-02-11T14:55:47;9.20;99.90
15103;DHT22;7652;53.584;9.998;2023-02-11T14:58:51;9.20;99.90
15103;DHT22;7652;53.584;9.998;2023-02-11T15:01:55;9.20;99.90
15103;DHT22;7652;53.584;9.998;2023-02-11T15:05:19;9.10;99.90
15103;DHT22;7652;53.584;9.998;2023-02-11T15:08:22;9.10;99.90
15103;DHT22;7652;53.584;9.998;2023-02-11T15:11:27;9.00;99.90
15103;DHT22;7652;53.584;9.998;2023-02-11T15:14:32;9.00;99.90
15103;DHT22;7652;53.584;9.998;2023-02-11T15:17:36;8.90;99.90
15103;DHT22;7652;53.584;9.998;2023-02-11T15:20:40;8.90;99.90
15103;DHT22;7652;53.584;9.998;2023-02-11T15:23:54;8.90;99.90
15103;DHT22;7652;53.584;9.998;2023-02-11T15:26:59;8.80;99.90
15103;DHT22;7652;53.584;9.998;2023-02-11T15:30:22;8.80;99.90
15103;DHT22;7652;53.584;9.998;2023-02-11T15:33:26;8.80;99.90
15103;DHT22;7652;53.584;9.998;2023-02-11T15:36:32;8.70;99.90
15103;DHT22;7652;53.584;9.998;2023-02-11T15:39:38;8.70;99.90
15103;DHT22;7652;53.584;9.998;2023-02-11T15:42:52;8.70;99.90
15103;DHT22;7652;53.584;9.998;2023-02-11T15:46:00;8.60;99.90
15103;DHT22;7652;53.584;9.998;2023-02-11T15:49:03;8.60;99.90
15103;DHT22;7652;53.584;9.998;2023-02-11T15:52:10;8.60;99.90
15103;DHT22;7652;53.584;9.998;2023-02-11T15:55:15;8.60;99.90
15103;DHT22;7652;53.584;9.998;2023-02-11T15:58:19;8.50;99.90
15103;DHT22;7652;53.584;9.998;2023-02-11T16:01:30;8.50;99.90
15103;DHT22;7652;53.584;9.998;2023-02-11T16:04:35;8.50;99.90
15103;DHT22;7652;53.584;9.998;2023-02-11T16:07:42;8.40;99.90
15103;DHT22;7652;53.584;9.998;2023-02-11T16:10:54;8.40;99.90
15103;DHT22;7652;53.584;9.998;2023-02-11T16:14:00;8.40;99.90
15103;DHT22;7652;53.584;9.998;2023-02-11T16:17:10;8.40;99.90
15103;DHT22;7652;53.584;9.998;2023-02-11T16:20:17;8.40;99.90
15103;DHT22;7652;53.584;9.998;2023-02-11T16:23:24;8.40;99.90
15103;DHT22;7652;53.584;9.998;2023-02-11T16:26:31;8.40;99.90
15103;DHT22;7652;53.584;9.998;2023-02-11T16:29:36;8.40;99.90
15103;DHT22;7652;53.584;9.998;2023-02-11T16:32:39;8.30;99.90
15103;DHT22;7652;53.584;9.998;2023-02-11T16:35:42;8.40;99.90
15103;DHT22;7652;53.584;9.998;2023-02-11T16:38:49;8.40;99.90
15103;DHT22;7652;53.584;9.998;2023-02-11T16:41:52;8.40;99.90
15103;DHT22;7652;53.584;9.998;2023-02-11T16:44:56;8.40;99.90
15103;DHT22;7652;53.584;9.998;2023-02-11T16:48:00;8.40;99.90
15103;DHT22;7652;53.584;9.998;2023-02-11T16:51:04;8.40;99.90
15103;DHT22;7652;53.584;9.998;2023-02-11T16:54:14;8.40;99.90
15103;DHT22;7652;53.584;9.998;2023-02-11T16:57:19;8.40;99.90
15103;DHT22;7652;53.584;9.998;2023-02-11T17:00:23;8.40;99.90
15103;DHT22;7652;53.584;9.998;2023-02-11T17:03:26;8.40;99.90
15103;DHT22;7652;53.584;9.998;2023-02-11T17:06:32;8.40;99.90
15103;DHT22;7652;53.584;9.998;2023-02-11T17:09:36;8.40;99.90
15103;DHT22;7652;53.584;9.998;2023-02-11T17:12:40;8.50;99.90
15103;DHT22;7652;53.584;9.998;2023-02-11T17:15:42;8.50;99.90
15103;DHT22;7652;53.584;9.998;2023-02-11T17:18:46;8.50;99.90
15103;DHT22;7652;53.584;9.998;2023-02-11T17:21:51;8.40;99.90
15103;DHT22;7652;53.584;9.998;2023-02-11T17:24:55;8.40;99.90
15103;DHT22;7652;53.584;9.998;2023-02-11T17:27:59;8.40;99.90
15103;DHT22;7652;53.584;9.998;2023-02-11T17:31:06;8.40;99.90
15103;DHT22;7652;53.584;9.998;2023-02-11T17:34:10;8.40;99.90
15103;DHT22;7652;53.584;9.998;2023-02-11T17:37:13;8.40;99.90
15103;DHT22;7652;53.584;9.998;2023-02-11T17:40:18;8.40;99.90
15103;DHT22;7652;53.584;9.998;2023-02-11T17:43:21;8.40;99.90
15103;DHT22;7652;53.584;9.998;2023-02-11T17:46:24;8.40;99.90
15103;DHT22;7652;53.584;9.998;2023-02-11T17:49:29;8.40;99.90
15103;DHT22;7652;53.584;9.998;2023-02-11T17:52:32;8.40;99.90
15103;DHT22;7652;53.584;9.998;2023-02-11T17:55:36;8.40;99.90
15103;DHT22;7652;53.584;9.998;2023-02-11T17:58:39;8.40;99.90
15103;DHT22;7652;53.584;9.998;2023-02-11T18:01:42;8.40;99.90
15103;DHT22;7652;53.584;9.998;2023-02-11T18:04:45;8.40;99.90
15103;DHT22;7652;53.584;9.998;2023-02-11T18:07:49;8.40;99.90
15103;DHT22;7652;53.584;9.998;2023-02-11T18:10:53;8.40;99.90
15103;DHT22;7652;53.584;9.998;2023-02-11T18:13:57;8.40;99.90
15103;DHT22;7652;53.584;9.998;2023-02-11T18:17:00;8.40;99.90
15103;DHT22;7652;53.584;9.998;2023-02-11T18:20:04;8.40;99.90
15103;DHT22;7652;53.584;9.998;2023-02-11T18:23:08;8.40;99.90
15103;DHT22;7652;53.584;9.998;2023-02-11T18:26:15;8.40;99.90
15103;DHT22;7652;53.584;9.998;2023-02-11T18:29:18;8.40;99.90
15103;DHT22;7652;53.584;9.998;2023-02-11T18:32:21;8.40;99.90
15103;DHT22;7652;53.584;9.998;2023-02-11T18:35:24;8.40;99.90
15103;DHT22;7652;53.584;9.998;2023-02-11T18:38:27;8.50;99.90
15103;DHT22;7652;53.584;9.998;2023-02-11T18:41:31;8.40;99.90
15103;DHT22;7652;53.584;9.998;2023-02-11T18:44:35;8.40;99.90
15103;DHT22;7652;53.584;9.998;2023-02-11T18:47:39;8.40;99.90
15103;DHT22;7652;53.584;9.998;2023-02-11T18:50:42;8.50;99.90
15103;DHT22;7652;53.584;9.998;2023-02-11T18:53:45;8.40;99.90
15103;DHT22;7652;53.584;9.998;2023-02-11T18:56:50;8.40;99.90
15103;DHT22;7652;53.584;9.998;2023-02-11T18:59:53;8.40;99.90
15103;DHT22;7652;53.584;9.998;2023-02-11T19:02:56;8.40;99.90
15103;DHT22;7652;53.584;9.998;2023-02-11T19:05:59;8.40;99.90
15103;DHT22;7652;53.584;9.998;2023-02-11T19:09:05;8.50;99.90
15103;DHT22;7652;53.584;9.998;2023-02-11T19:12:11;8.50;99.90
15103;DHT22;7652;53.584;9.998;2023-02-11T19:15:15;8.50;99.90
15103;DHT22;7652;53.584;9.998;2023-02-11T19:18:18;8.50;99.90
15103;DHT22;7652;53.584;9.998;2023-02-11T19:21:21;8.50;99.90
15103;DHT22;7652;53.584;9.998;2023-02-11T19:24:24;8.60;99.90
15103;DHT22;7652;53.584;9.998;2023-02-11T19:27:29;8.60;99.90
15103;DHT22;7652;53.584;9.998;2023-02-11T19:30:32;8.60;99.90
15103;DHT22;7652;53.584;9.998;2023-02-11T19:33:37;8.50;99.90
15103;DHT22;7652;53.584;9.998;2023-02-11T19:36:40;8.60;99.90
15103;DHT22;7652;53.584;9.998;2023-02-11T19:39:43;8.50;99.90
15103;DHT22;7652;53.584;9.998;2023-02-11T19:42:48;8.60;99.90
15103;DHT22;7652;53.584;9.998;2023-02-11T19:45:51;8.60;99.90
15103;DHT22;7652;53.584;9.998;2023-02-11T19:48:58;8.60;99.90
15103;DHT22;7652;53.584;9.998;2023-02-11T19:52:01;8.60;99.90
15103;DHT22;7652;53.584;9.998;2023-02-11T19:55:05;8.60;99.90
15103;DHT22;7652;53.584;9.998;2023-02-11T19:58:09;8.60;99.90
15103;DHT22;7652;53.584;9.998;2023-02-11T20:01:14;8.60;99.90
15103;DHT22;7652;53.584;9.998;2023-02-11T20:04:17;8.60;99.90
15103;DHT22;7652;53.584;9.998;2023-02-11T20:07:21;8.60;99.90
15103;DHT22;7652;53.584;9.998;2023-02-11T20:10:24;8.50;99.90
15103;DHT22;7652;53.584;9.998;2023-02-11T20:13:28;8.50;99.90
15103;DHT22;7652;53.584;9.998;2023-02-11T20:16:32;8.60;99.90
15103;DHT22;7652;53.584;9.998;2023-02-11T20:19:49;8.60;99.90
15103;DHT22;7652;53.584;9.998;2023-02-11T20:22:52;8.60;99.90
15103;DHT22;7652;53.584;9.998;2023-02-11T20:25:55;8.70;99.90